sensor_id;sensor_type;location;lat;lon;timestamp;P1;durP1;ratioP1;P2;durP2;ratioP2
7833;SDS011;3962;42.696;23.354;2023-03-31T00:01:09;21.70;;;9.77;;
7833;SDS011;3962;42.696;23.354;2023-03-31T00:03:36;17.97;;;9.20;;
7833;SDS011;3962;42.696;23.354;2023-03-31T00:06:08;19.03;;;9.93;;
7833;SDS011;3962;42.696;23.354;2023-03-31T00:08:36;20.60;;;9.73;;
7833;SDS011;3962;42.696;23.354;2023-03-31T00:11:05;21.77;;;9.53;;
7833;SDS011;3962;42.696;23.354;2023-03-31T00:13:32;15.57;;;9.57;;
7833;SDS011;3962;42.696;23.354;2023-03-31T00:16:00;21.60;;;9.33;;
7833;SDS011;3962;42.696;23.354;2023-03-31T00:18:30;18.93;;;9.63;;
7833;SDS011;3962;42.696;23.354;2023-03-31T00:21:05;18.50;;;9.30;;
7833;SDS011;3962;42.696;23.354;2023-03-31T00:23:33;17.43;;;10.03;;
7833;SDS011;3962;42.696;23.354;2023-03-31T00:26:00;19.07;;;9.80;;
7833;SDS011;3962;42.696;23.354;2023-03-31T00:28:26;17.60;;;9.47;;
7833;SDS011;3962;42.696;23.354;2023-03-31T00:30:58;18.47;;;9.03;;
7833;SDS011;3962;42.696;23.354;2023-03-31T00:33:26;15.83;;;8.90;;
7833;SDS011;3962;42.696;23.354;2023-03-31T00:35:55;12.20;;;8.27;;
7833;SDS011;3962;42.696;23.354;2023-03-31T00:38:26;19.43;;;9.50;;
7833;SDS011;3962;42.696;23.354;2023-03-31T00:40:54;17.67;;;8.63;;
7833;SDS011;3962;42.696;23.354;2023-03-31T00:43:26;14.93;;;8.80;;
7833;SDS011;3962;42.696;23.354;2023-03-31T00:45:55;17.23;;;8.90;;
7833;SDS011;3962;42.696;23.354;2023-03-31T00:48:29;16.17;;;8.17;;
7833;SDS011;3962;42.696;23.354;2023-03-31T00:50:58;14.13;;;7.77;;
7833;SDS011;3962;42.696;23.354;2023-03-31T00:53:31;17.30;;;8.57;;
7833;SDS011;3962;42.696;23.354;2023-03-31T00:56:01;14.20;;;7.73;;
7833;SDS011;3962;42.696;23.354;2023-03-31T00:58:34;14.97;;;7.73;;
7833;SDS011;3962;42.696;23.354;2023-03-31T01:01:08;12.80;;;7.50;;
7833;SDS011;3962;42.696;23.354;2023-03-31T01:03:40;15.73;;;7.97;;
7833;SDS011;3962;42.696;23.354;2023-03-31T01:06:12;19.93;;;9.40;;
7833;SDS011;3962;42.696;23.354;2023-03-31T01:08:43;19.50;;;9.93;;
7833;SDS011;3962;42.696;23.354;2023-03-31T01:11:12;23.37;;;10.43;;
7833;SDS011;3962;42.696;23.354;2023-03-31T01:13:41;21.53;;;9.63;;
7833;SDS011;3962;42.696;23.354;2023-03-31T01:16:10;20.70;;;9.97;;
7833;SDS011;3962;42.696;23.354;2023-03-31T01:18:36;22.43;;;10.17;;
7833;SDS011;3962;42.696;23.354;2023-03-31T01:24:39;17.67;;;9.60;;
7833;SDS011;3962;42.696;23.354;2023-03-31T01:27:36;19.07;;;9.23;;
7833;SDS011;3962;42.696;23.354;2023-03-31T01:33:34;18.43;;;9.97;;
7833;SDS011;3962;42.696;23.354;2023-03-31T01:39:43;26.23;;;12.97;;
7833;SDS011;3962;42.696;23.354;2023-03-31T01:42:27;29.53;;;15.50;;
7833;SDS011;3962;42.696;23.354;2023-03-31T01:45:03;45.27;;;21.43;;
7833;SDS011;3962;42.696;23.354;2023-03-31T01:47:42;43.80;;;20.37;;
7833;SDS011;3962;42.696;23.354;2023-03-31T01:50:16;34.20;;;19.27;;
7833;SDS011;3962;42.696;23.354;2023-03-31T01:52:52;27.13;;;14.90;;
7833;SDS011;3962;42.696;23.354;2023-03-31T01:55:25;31.30;;;15.47;;
7833;SDS011;3962;42.696;23.354;2023-03-31T01:58:01;28.57;;;15.90;;
7833;SDS011;3962;42.696;23.354;2023-03-31T02:00:35;30.47;;;16.47;;
7833;SDS011;3962;42.696;23.354;2023-03-31T02:03:07;28.80;;;14.83;;
7833;SDS011;3962;42.696;23.354;2023-03-31T02:05:42;30.03;;;15.57;;
7833;SDS011;3962;42.696;23.354;2023-03-31T02:08:14;33.30;;;16.03;;
7833;SDS011;3962;42.696;23.354;2023-03-31T02:10:44;31.63;;;16.07;;
7833;SDS011;3962;42.696;23.354;2023-03-31T02:13:13;28.70;;;14.07;;
7833;SDS011;3962;42.696;23.354;2023-03-31T02:15:43;25.70;;;13.47;;
7833;SDS011;3962;42.696;23.354;2023-03-31T02:18:13;26.07;;;14.80;;
7833;SDS011;3962;42.696;23.354;2023-03-31T02:20:43;28.13;;;14.17;;
7833;SDS011;3962;42.696;23.354;2023-03-31T02:23:13;26.10;;;14.13;;
7833;SDS011;3962;42.696;23.354;2023-03-31T02:25:44;28.07;;;14.90;;
7833;SDS011;3962;42.696;23.354;2023-03-31T02:28:17;29.47;;;14.70;;
7833;SDS011;3962;42.696;23.354;2023-03-31T02:30:47;26.07;;;14.90;;
7833;SDS011;3962;42.696;23.354;2023-03-31T02:33:22;26.73;;;15.47;;
7833;SDS011;3962;42.696;23.354;2023-03-31T02:35:49;29.07;;;16.17;;
7833;SDS011;3962;42.696;23.354;2023-03-31T02:38:16;29.87;;;16.20;;
7833;SDS011;3962;42.696;23.354;2023-03-31T02:40:43;19.47;;;10.77;;
7833;SDS011;3962;42.696;23.354;2023-03-31T02:43:11;21.77;;;12.53;;
7833;SDS011;3962;42.696;23.354;2023-03-31T02:45:39;24.30;;;12.30;;
7833;SDS011;3962;42.696;23.354;2023-03-31T02:48:09;29.63;;;14.33;;
7833;SDS011;3962;42.696;23.354;2023-03-31T02:50:43;22.43;;;13.20;;
7833;SDS011;3962;42.696;23.354;2023-03-31T02:53:33;18.83;;;10.83;;
7833;SDS011;3962;42.696;23.354;2023-03-31T02:56:17;26.07;;;12.90;;
7833;SDS011;3962;42.696;23.354;2023-03-31T02:59:01;27.23;;;13.37;;
7833;SDS011;3962;42.696;23.354;2023-03-31T03:01:52;26.30;;;12.60;;
7833;SDS011;3962;42.696;23.354;2023-03-31T03:04:41;24.27;;;13.20;;
7833;SDS011;3962;42.696;23.354;2023-03-31T03:07:23;22.60;;;11.93;;
7833;SDS011;3962;42.696;23.354;2023-03-31T03:10:00;24.03;;;12.20;;
7833;SDS011;3962;42.696;23.354;2023-03-31T03:12:32;26.77;;;11.80;;
7833;SDS011;3962;42.696;23.354;2023-03-31T03:15:10;18.33;;;11.63;;
7833;SDS011;3962;42.696;23.354;2023-03-31T03:17:42;17.37;;;10.73;;
7833;SDS011;3962;42.696;23.354;2023-03-31T03:20:12;20.17;;;10.20;;
7833;SDS011;3962;42.696;23.354;2023-03-31T03:22:40;16.97;;;10.80;;
7833;SDS011;3962;42.696;23.354;2023-03-31T03:25:08;19.27;;;9.83;;
7833;SDS011;3962;42.696;23.354;2023-03-31T03:27:36;21.87;;;10.50;;
7833;SDS011;3962;42.696;23.354;2023-03-31T03:30:06;17.23;;;9.63;;
7833;SDS011;3962;42.696;23.354;2023-03-31T03:32:35;17.20;;;9.60;;
7833;SDS011;3962;42.696;23.354;2023-03-31T03:35:03;20.20;;;10.83;;
7833;SDS011;3962;42.696;23.354;2023-03-31T03:37:31;17.90;;;11.13;;
7833;SDS011;3962;42.696;23.354;2023-03-31T03:39:58;20.33;;;11.80;;
7833;SDS011;3962;42.696;23.354;2023-03-31T03:42:25;24.47;;;12.97;;
7833;SDS011;3962;42.696;23.354;2023-03-31T03:44:52;18.87;;;11.10;;
7833;SDS011;3962;42.696;23.354;2023-03-31T03:47:19;17.00;;;9.90;;
7833;SDS011;3962;42.696;23.354;2023-03-31T03:49:47;15.63;;;7.60;;
7833;SDS011;3962;42.696;23.354;2023-03-31T03:52:14;11.20;;;6.03;;
7833;SDS011;3962;42.696;23.354;2023-03-31T03:54:41;9.73;;;5.70;;
7833;SDS011;3962;42.696;23.354;2023-03-31T03:57:07;12.10;;;5.90;;
7833;SDS011;3962;42.696;23.354;2023-03-31T03:59:35;10.27;;;5.90;;
7833;SDS011;3962;42.696;23.354;2023-03-31T04:02:01;9.87;;;6.03;;
7833;SDS011;3962;42.696;23.354;2023-03-31T04:04:28;12.43;;;5.23;;
7833;SDS011;3962;42.696;23.354;2023-03-31T04:06:56;8.93;;;4.80;;
7833;SDS011;3962;42.696;23.354;2023-03-31T04:09:23;12.67;;;5.40;;
7833;SDS011;3962;42.696;23.354;2023-03-31T04:11:50;8.97;;;4.47;;
7833;SDS011;3962;42.696;23.354;2023-03-31T04:14:17;7.63;;;4.50;;
7833;SDS011;3962;42.696;23.354;2023-03-31T04:16:44;5.17;;;4.23;;
7833;SDS011;3962;42.696;23.354;2023-03-31T04:19:12;14.93;;;8.17;;
7833;SDS011;3962;42.696;23.354;2023-03-31T04:21:41;10.73;;;6.40;;
7833;SDS011;3962;42.696;23.354;2023-03-31T04:24:10;8.77;;;5.70;;
7833;SDS011;3962;42.696;23.354;2023-03-31T04:26:45;9.77;;;5.57;;
7833;SDS011;3962;42.696;23.354;2023-03-31T04:29:14;10.63;;;5.77;;
7833;SDS011;3962;42.696;23.354;2023-03-31T04:31:44;13.33;;;7.00;;
7833;SDS011;3962;42.696;23.354;2023-03-31T04:34:11;15.03;;;7.20;;
7833;SDS011;3962;42.696;23.354;2023-03-31T04:36:39;12.50;;;7.10;;
7833;SDS011;3962;42.696;23.354;2023-03-31T04:39:12;13.57;;;6.43;;
7833;SDS011;3962;42.696;23.354;2023-03-31T04:41:40;12.60;;;7.77;;
7833;SDS011;3962;42.696;23.354;2023-03-31T04:44:06;12.00;;;6.60;;
7833;SDS011;3962;42.696;23.354;2023-03-31T04:46:33;13.43;;;7.40;;
7833;SDS011;3962;42.696;23.354;2023-03-31T04:49:01;13.87;;;7.67;;
7833;SDS011;3962;42.696;23.354;2023-03-31T04:51:29;13.87;;;8.23;;
7833;SDS011;3962;42.696;23.354;2023-03-31T04:53:56;13.03;;;7.70;;
7833;SDS011;3962;42.696;23.354;2023-03-31T04:56:25;16.90;;;8.00;;
7833;SDS011;3962;42.696;23.354;2023-03-31T04:58:52;11.63;;;8.90;;
7833;SDS011;3962;42.696;23.354;2023-03-31T05:01:18;10.03;;;6.60;;
7833;SDS011;3962;42.696;23.354;2023-03-31T05:03:46;12.77;;;7.60;;
7833;SDS011;3962;42.696;23.354;2023-03-31T05:06:13;12.10;;;6.40;;
7833;SDS011;3962;42.696;23.354;2023-03-31T05:08:40;12.90;;;7.53;;
7833;SDS011;3962;42.696;23.354;2023-03-31T05:11:07;16.07;;;8.27;;
7833;SDS011;3962;42.696;23.354;2023-03-31T05:13:35;16.73;;;9.27;;
7833;SDS011;3962;42.696;23.354;2023-03-31T05:16:05;18.27;;;9.77;;
7833;SDS011;3962;42.696;23.354;2023-03-31T05:18:33;18.27;;;8.90;;
7833;SDS011;3962;42.696;23.354;2023-03-31T05:21:10;15.30;;;8.60;;
7833;SDS011;3962;42.696;23.354;2023-03-31T05:23:38;20.10;;;12.33;;
7833;SDS011;3962;42.696;23.354;2023-03-31T05:26:04;19.23;;;10.00;;
7833;SDS011;3962;42.696;23.354;2023-03-31T05:28:32;18.57;;;10.20;;
7833;SDS011;3962;42.696;23.354;2023-03-31T05:31:00;17.43;;;10.63;;
7833;SDS011;3962;42.696;23.354;2023-03-31T05:33:28;29.27;;;13.93;;
7833;SDS011;3962;42.696;23.354;2023-03-31T05:35:55;21.93;;;12.27;;
7833;SDS011;3962;42.696;23.354;2023-03-31T05:38:24;12.43;;;8.70;;
7833;SDS011;3962;42.696;23.354;2023-03-31T05:40:53;27.43;;;11.30;;
7833;SDS011;3962;42.696;23.354;2023-03-31T05:43:20;19.70;;;9.90;;
7833;SDS011;3962;42.696;23.354;2023-03-31T05:45:47;22.03;;;9.83;;
7833;SDS011;3962;42.696;23.354;2023-03-31T05:48:15;24.57;;;9.53;;
7833;SDS011;3962;42.696;23.354;2023-03-31T05:50:42;22.97;;;9.30;;
7833;SDS011;3962;42.696;23.354;2023-03-31T05:53:09;20.27;;;10.47;;
7833;SDS011;3962;42.696;23.354;2023-03-31T05:55:36;14.73;;;8.07;;
7833;SDS011;3962;42.696;23.354;2023-03-31T05:58:04;12.47;;;7.70;;
7833;SDS011;3962;42.696;23.354;2023-03-31T06:00:31;21.03;;;9.13;;
7833;SDS011;3962;42.696;23.354;2023-03-31T06:03:00;23.77;;;7.97;;
7833;SDS011;3962;42.696;23.354;2023-03-31T06:05:28;25.53;;;9.30;;
7833;SDS011;3962;42.696;23.354;2023-03-31T06:07:56;22.67;;;8.20;;
7833;SDS011;3962;42.696;23.354;2023-03-31T06:10:23;28.03;;;9.13;;
7833;SDS011;3962;42.696;23.354;2023-03-31T06:12:50;27.17;;;8.50;;
7833;SDS011;3962;42.696;23.354;2023-03-31T06:15:17;11.30;;;6.53;;
7833;SDS011;3962;42.696;23.354;2023-03-31T06:17:43;13.53;;;7.47;;
7833;SDS011;3962;42.696;23.354;2023-03-31T06:20:10;17.43;;;7.33;;
7833;SDS011;3962;42.696;23.354;2023-03-31T06:22:38;17.00;;;8.23;;
7833;SDS011;3962;42.696;23.354;2023-03-31T06:25:06;19.80;;;9.17;;
7833;SDS011;3962;42.696;23.354;2023-03-31T06:27:33;22.30;;;8.97;;
7833;SDS011;3962;42.696;23.354;2023-03-31T06:30:00;18.40;;;8.20;;
7833;SDS011;3962;42.696;23.354;2023-03-31T06:32:27;22.03;;;8.50;;
7833;SDS011;3962;42.696;23.354;2023-03-31T06:34:53;21.40;;;8.63;;
7833;SDS011;3962;42.696;23.354;2023-03-31T06:37:20;16.93;;;7.53;;
7833;SDS011;3962;42.696;23.354;2023-03-31T06:39:48;20.30;;;8.50;;
7833;SDS011;3962;42.696;23.354;2023-03-31T06:42:15;28.37;;;9.67;;
7833;SDS011;3962;42.696;23.354;2023-03-31T06:44:42;32.37;;;10.73;;
7833;SDS011;3962;42.696;23.354;2023-03-31T06:47:09;20.13;;;8.27;;
7833;SDS011;3962;42.696;23.354;2023-03-31T06:49:36;21.20;;;8.77;;
7833;SDS011;3962;42.696;23.354;2023-03-31T06:52:03;18.57;;;10.27;;
7833;SDS011;3962;42.696;23.354;2023-03-31T06:54:30;23.77;;;9.40;;
7833;SDS011;3962;42.696;23.354;2023-03-31T06:56:58;22.77;;;8.90;;
7833;SDS011;3962;42.696;23.354;2023-03-31T06:59:25;17.07;;;8.63;;
7833;SDS011;3962;42.696;23.354;2023-03-31T07:01:52;18.83;;;8.20;;
7833;SDS011;3962;42.696;23.354;2023-03-31T07:04:18;22.37;;;8.60;;
7833;SDS011;3962;42.696;23.354;2023-03-31T07:06:45;11.57;;;8.13;;
7833;SDS011;3962;42.696;23.354;2023-03-31T07:09:12;13.93;;;8.13;;
7833;SDS011;3962;42.696;23.354;2023-03-31T07:11:39;17.97;;;8.77;;
7833;SDS011;3962;42.696;23.354;2023-03-31T07:14:07;17.83;;;8.33;;
7833;SDS011;3962;42.696;23.354;2023-03-31T07:16:34;9.83;;;5.43;;
7833;SDS011;3962;42.696;23.354;2023-03-31T07:19:01;8.37;;;4.20;;
7833;SDS011;3962;42.696;23.354;2023-03-31T07:21:30;6.97;;;4.13;;
7833;SDS011;3962;42.696;23.354;2023-03-31T07:23:57;12.37;;;6.77;;
7833;SDS011;3962;42.696;23.354;2023-03-31T07:26:24;10.00;;;6.60;;
7833;SDS011;3962;42.696;23.354;2023-03-31T07:28:51;17.23;;;7.03;;
7833;SDS011;3962;42.696;23.354;2023-03-31T07:31:22;9.13;;;4.20;;
7833;SDS011;3962;42.696;23.354;2023-03-31T07:33:49;8.33;;;4.10;;
7833;SDS011;3962;42.696;23.354;2023-03-31T07:36:16;9.93;;;4.30;;
7833;SDS011;3962;42.696;23.354;2023-03-31T07:38:44;14.00;;;4.53;;
7833;SDS011;3962;42.696;23.354;2023-03-31T07:41:13;6.80;;;4.60;;
7833;SDS011;3962;42.696;23.354;2023-03-31T07:43:42;8.33;;;4.73;;
7833;SDS011;3962;42.696;23.354;2023-03-31T07:46:13;8.50;;;4.37;;
7833;SDS011;3962;42.696;23.354;2023-03-31T07:48:43;10.20;;;4.53;;
7833;SDS011;3962;42.696;23.354;2023-03-31T07:51:12;6.80;;;4.27;;
7833;SDS011;3962;42.696;23.354;2023-03-31T07:53:39;9.77;;;4.97;;
7833;SDS011;3962;42.696;23.354;2023-03-31T07:56:06;8.23;;;4.87;;
7833;SDS011;3962;42.696;23.354;2023-03-31T07:58:33;8.93;;;4.63;;
7833;SDS011;3962;42.696;23.354;2023-03-31T08:01:00;6.23;;;4.50;;
7833;SDS011;3962;42.696;23.354;2023-03-31T08:03:26;6.50;;;4.33;;
7833;SDS011;3962;42.696;23.354;2023-03-31T08:05:55;10.60;;;4.07;;
7833;SDS011;3962;42.696;23.354;2023-03-31T08:08:22;5.13;;;4.03;;
7833;SDS011;3962;42.696;23.354;2023-03-31T08:10:49;6.20;;;3.57;;
7833;SDS011;3962;42.696;23.354;2023-03-31T08:13:16;7.23;;;3.87;;
7833;SDS011;3962;42.696;23.354;2023-03-31T08:15:42;7.23;;;3.90;;
7833;SDS011;3962;42.696;23.354;2023-03-31T08:18:09;11.77;;;3.97;;
7833;SDS011;3962;42.696;23.354;2023-03-31T08:20:36;8.30;;;3.70;;
7833;SDS011;3962;42.696;23.354;2023-03-31T08:23:04;9.60;;;3.97;;
7833;SDS011;3962;42.696;23.354;2023-03-31T08:25:35;8.10;;;4.00;;
7833;SDS011;3962;42.696;23.354;2023-03-31T08:28:02;7.40;;;3.57;;
7833;SDS011;3962;42.696;23.354;2023-03-31T08:30:31;7.80;;;3.50;;
7833;SDS011;3962;42.696;23.354;2023-03-31T08:32:58;7.37;;;3.87;;
7833;SDS011;3962;42.696;23.354;2023-03-31T08:35:26;4.57;;;3.17;;
7833;SDS011;3962;42.696;23.354;2023-03-31T08:37:53;9.87;;;3.93;;
7833;SDS011;3962;42.696;23.354;2023-03-31T08:40:22;6.07;;;3.30;;
7833;SDS011;3962;42.696;23.354;2023-03-31T08:42:51;10.97;;;3.63;;
7833;SDS011;3962;42.696;23.354;2023-03-31T08:45:22;9.80;;;3.73;;
7833;SDS011;3962;42.696;23.354;2023-03-31T08:47:52;8.90;;;3.60;;
7833;SDS011;3962;42.696;23.354;2023-03-31T08:50:24;5.90;;;3.23;;
7833;SDS011;3962;42.696;23.354;2023-03-31T08:52:54;5.93;;;3.53;;
7833;SDS011;3962;42.696;23.354;2023-03-31T08:55:29;6.87;;;3.63;;
7833;SDS011;3962;42.696;23.354;2023-03-31T08:58:02;5.03;;;3.30;;
7833;SDS011;3962;42.696;23.354;2023-03-31T09:00:37;6.17;;;3.27;;
7833;SDS011;3962;42.696;23.354;2023-03-31T09:03:12;7.30;;;3.53;;
7833;SDS011;3962;42.696;23.354;2023-03-31T09:05:48;7.13;;;3.10;;
7833;SDS011;3962;42.696;23.354;2023-03-31T09:08:23;5.90;;;3.27;;
7833;SDS011;3962;42.696;23.354;2023-03-31T09:11:07;9.60;;;3.30;;
7833;SDS011;3962;42.696;23.354;2023-03-31T09:16:36;7.13;;;3.30;;
7833;SDS011;3962;42.696;23.354;2023-03-31T09:19:11;8.67;;;3.03;;
7833;SDS011;3962;42.696;23.354;2023-03-31T09:21:42;7.10;;;2.70;;
7833;SDS011;3962;42.696;23.354;2023-03-31T09:24:13;7.87;;;2.70;;
7833;SDS011;3962;42.696;23.354;2023-03-31T09:26:46;5.37;;;3.00;;
7833;SDS011;3962;42.696;23.354;2023-03-31T09:29:19;6.73;;;3.03;;
7833;SDS011;3962;42.696;23.354;2023-03-31T09:31:51;5.10;;;2.63;;
7833;SDS011;3962;42.696;23.354;2023-03-31T09:34:20;8.60;;;3.23;;
7833;SDS011;3962;42.696;23.354;2023-03-31T09:36:50;7.20;;;3.00;;
7833;SDS011;3962;42.696;23.354;2023-03-31T09:39:17;9.80;;;2.87;;
7833;SDS011;3962;42.696;23.354;2023-03-31T09:41:47;7.23;;;2.90;;
7833;SDS011;3962;42.696;23.354;2023-03-31T09:44:23;7.20;;;2.90;;
7833;SDS011;3962;42.696;23.354;2023-03-31T09:46:53;3.63;;;2.10;;
7833;SDS011;3962;42.696;23.354;2023-03-31T09:49:21;5.00;;;2.67;;
7833;SDS011;3962;42.696;23.354;2023-03-31T09:51:55;5.93;;;2.90;;
7833;SDS011;3962;42.696;23.354;2023-03-31T09:54:27;9.47;;;2.70;;
7833;SDS011;3962;42.696;23.354;2023-03-31T09:57:05;4.33;;;2.83;;
7833;SDS011;3962;42.696;23.354;2023-03-31T09:59:39;5.90;;;2.87;;
7833;SDS011;3962;42.696;23.354;2023-03-31T10:02:19;7.03;;;2.97;;
7833;SDS011;3962;42.696;23.354;2023-03-31T10:04:54;7.43;;;2.70;;
7833;SDS011;3962;42.696;23.354;2023-03-31T10:07:22;4.47;;;2.60;;
7833;SDS011;3962;42.696;23.354;2023-03-31T10:09:50;4.33;;;2.70;;
7833;SDS011;3962;42.696;23.354;2023-03-31T10:12:20;6.87;;;2.47;;
7833;SDS011;3962;42.696;23.354;2023-03-31T10:14:49;7.40;;;2.27;;
7833;SDS011;3962;42.696;23.354;2023-03-31T10:17:18;5.90;;;2.53;;
7833;SDS011;3962;42.696;23.354;2023-03-31T10:19:46;4.47;;;2.67;;
7833;SDS011;3962;42.696;23.354;2023-03-31T10:22:14;7.17;;;2.70;;
7833;SDS011;3962;42.696;23.354;2023-03-31T10:24:51;6.77;;;2.33;;
7833;SDS011;3962;42.696;23.354;2023-03-31T10:27:21;6.40;;;2.50;;
7833;SDS011;3962;42.696;23.354;2023-03-31T10:29:51;6.60;;;2.60;;
7833;SDS011;3962;42.696;23.354;2023-03-31T10:32:21;6.77;;;2.63;;
7833;SDS011;3962;42.696;23.354;2023-03-31T10:34:52;7.63;;;2.60;;
7833;SDS011;3962;42.696;23.354;2023-03-31T10:37:21;5.33;;;2.50;;
7833;SDS011;3962;42.696;23.354;2023-03-31T10:39:55;5.17;;;2.40;;
7833;SDS011;3962;42.696;23.354;2023-03-31T10:42:25;7.00;;;2.70;;
7833;SDS011;3962;42.696;23.354;2023-03-31T10:45:09;4.43;;;2.30;;
7833;SDS011;3962;42.696;23.354;2023-03-31T10:47:38;7.67;;;2.90;;
7833;SDS011;3962;42.696;23.354;2023-03-31T10:50:11;7.27;;;2.77;;
7833;SDS011;3962;42.696;23.354;2023-03-31T10:52:42;7.90;;;3.00;;
7833;SDS011;3962;42.696;23.354;2023-03-31T10:55:10;6.90;;;2.63;;
7833;SDS011;3962;42.696;23.354;2023-03-31T10:57:42;2.70;;;2.40;;
7833;SDS011;3962;42.696;23.354;2023-03-31T11:00:17;4.23;;;2.57;;
7833;SDS011;3962;42.696;23.354;2023-03-31T11:02:59;6.23;;;2.40;;
7833;SDS011;3962;42.696;23.354;2023-03-31T11:05:40;5.00;;;2.70;;
7833;SDS011;3962;42.696;23.354;2023-03-31T11:08:25;6.27;;;2.63;;
7833;SDS011;3962;42.696;23.354;2023-03-31T11:11:06;8.03;;;2.67;;
7833;SDS011;3962;42.696;23.354;2023-03-31T11:13:45;8.37;;;2.77;;
7833;SDS011;3962;42.696;23.354;2023-03-31T11:16:17;6.10;;;3.10;;
7833;SDS011;3962;42.696;23.354;2023-03-31T11:18:56;5.57;;;2.90;;
7833;SDS011;3962;42.696;23.354;2023-03-31T11:21:36;5.33;;;2.63;;
7833;SDS011;3962;42.696;23.354;2023-03-31T11:24:16;6.93;;;2.57;;
7833;SDS011;3962;42.696;23.354;2023-03-31T11:26:54;7.13;;;3.57;;
7833;SDS011;3962;42.696;23.354;2023-03-31T11:29:31;4.63;;;2.57;;
7833;SDS011;3962;42.696;23.354;2023-03-31T11:32:07;5.05;;;2.63;;
7833;SDS011;3962;42.696;23.354;2023-03-31T11:34:56;8.20;;;2.90;;
7833;SDS011;3962;42.696;23.354;2023-03-31T11:37:39;4.87;;;2.70;;
7833;SDS011;3962;42.696;23.354;2023-03-31T11:40:27;7.70;;;2.63;;
7833;SDS011;3962;42.696;23.354;2023-03-31T11:43:06;6.40;;;2.70;;
7833;SDS011;3962;42.696;23.354;2023-03-31T11:45:40;5.50;;;2.67;;
7833;SDS011;3962;42.696;23.354;2023-03-31T11:48:16;9.07;;;3.00;;
7833;SDS011;3962;42.696;23.354;2023-03-31T11:50:49;6.03;;;2.27;;
7833;SDS011;3962;42.696;23.354;2023-03-31T11:53:18;7.63;;;2.87;;
7833;SDS011;3962;42.696;23.354;2023-03-31T11:55:50;7.43;;;2.27;;
7833;SDS011;3962;42.696;23.354;2023-03-31T11:58:20;9.93;;;3.90;;
7833;SDS011;3962;42.696;23.354;2023-03-31T12:00:55;4.30;;;2.50;;
7833;SDS011;3962;42.696;23.354;2023-03-31T12:03:28;5.97;;;2.80;;
7833;SDS011;3962;42.696;23.354;2023-03-31T12:06:08;10.03;;;2.83;;
7833;SDS011;3962;42.696;23.354;2023-03-31T12:08:45;5.53;;;2.10;;
7833;SDS011;3962;42.696;23.354;2023-03-31T12:11:18;7.13;;;2.90;;
7833;SDS011;3962;42.696;23.354;2023-03-31T12:13:52;3.87;;;2.70;;
7833;SDS011;3962;42.696;23.354;2023-03-31T12:16:34;4.87;;;2.40;;
7833;SDS011;3962;42.696;23.354;2023-03-31T12:19:07;3.30;;;2.20;;
7833;SDS011;3962;42.696;23.354;2023-03-31T12:21:57;5.83;;;2.27;;
7833;SDS011;3962;42.696;23.354;2023-03-31T12:24:29;8.23;;;2.40;;
7833;SDS011;3962;42.696;23.354;2023-03-31T12:27:01;4.73;;;2.70;;
7833;SDS011;3962;42.696;23.354;2023-03-31T12:29:33;7.97;;;2.83;;
7833;SDS011;3962;42.696;23.354;2023-03-31T12:32:06;8.93;;;3.07;;
7833;SDS011;3962;42.696;23.354;2023-03-31T12:34:41;6.17;;;2.57;;
7833;SDS011;3962;42.696;23.354;2023-03-31T12:37:24;11.43;;;3.40;;
7833;SDS011;3962;42.696;23.354;2023-03-31T12:40:14;3.70;;;2.70;;
7833;SDS011;3962;42.696;23.354;2023-03-31T12:42:53;6.13;;;2.70;;
7833;SDS011;3962;42.696;23.354;2023-03-31T12:45:34;4.73;;;2.30;;
7833;SDS011;3962;42.696;23.354;2023-03-31T12:48:12;4.93;;;2.20;;
7833;SDS011;3962;42.696;23.354;2023-03-31T12:51:01;6.30;;;2.30;;
7833;SDS011;3962;42.696;23.354;2023-03-31T12:53:46;6.13;;;2.37;;
7833;SDS011;3962;42.696;23.354;2023-03-31T12:56:25;8.03;;;3.17;;
7833;SDS011;3962;42.696;23.354;2023-03-31T12:58:52;3.10;;;2.10;;
7833;SDS011;3962;42.696;23.354;2023-03-31T13:01:20;7.33;;;2.60;;
7833;SDS011;3962;42.696;23.354;2023-03-31T13:03:50;2.27;;;1.70;;
7833;SDS011;3962;42.696;23.354;2023-03-31T13:12:08;8.53;;;2.57;;
7833;SDS011;3962;42.696;23.354;2023-03-31T13:14:41;6.67;;;2.17;;
7833;SDS011;3962;42.696;23.354;2023-03-31T13:17:10;3.57;;;2.27;;
7833;SDS011;3962;42.696;23.354;2023-03-31T13:19:41;7.50;;;2.50;;
7833;SDS011;3962;42.696;23.354;2023-03-31T13:22:25;6.97;;;2.40;;
7833;SDS011;3962;42.696;23.354;2023-03-31T13:25:08;3.53;;;1.97;;
7833;SDS011;3962;42.696;23.354;2023-03-31T13:28:17;4.50;;;2.30;;
7833;SDS011;3962;42.696;23.354;2023-03-31T13:30:52;8.60;;;2.20;;
7833;SDS011;3962;42.696;23.354;2023-03-31T13:39:18;6.67;;;2.33;;
7833;SDS011;3962;42.696;23.354;2023-03-31T13:42:02;2.50;;;1.90;;
7833;SDS011;3962;42.696;23.354;2023-03-31T13:44:53;8.50;;;2.77;;
7833;SDS011;3962;42.696;23.354;2023-03-31T13:47:45;4.37;;;2.60;;
7833;SDS011;3962;42.696;23.354;2023-03-31T13:50:28;4.63;;;2.53;;
7833;SDS011;3962;42.696;23.354;2023-03-31T13:53:03;6.60;;;2.47;;
7833;SDS011;3962;42.696;23.354;2023-03-31T13:55:49;5.53;;;2.73;;
7833;SDS011;3962;42.696;23.354;2023-03-31T14:01:54;5.70;;;2.70;;
7833;SDS011;3962;42.696;23.354;2023-03-31T14:07:43;6.97;;;2.90;;
7833;SDS011;3962;42.696;23.354;2023-03-31T14:10:20;7.07;;;2.73;;
7833;SDS011;3962;42.696;23.354;2023-03-31T14:12:50;11.60;;;3.70;;
7833;SDS011;3962;42.696;23.354;2023-03-31T14:15:18;7.13;;;2.40;;
7833;SDS011;3962;42.696;23.354;2023-03-31T14:17:46;8.40;;;3.20;;
7833;SDS011;3962;42.696;23.354;2023-03-31T14:20:21;6.17;;;2.87;;
7833;SDS011;3962;42.696;23.354;2023-03-31T14:22:56;6.43;;;2.40;;
7833;SDS011;3962;42.696;23.354;2023-03-31T14:25:39;7.83;;;3.33;;
7833;SDS011;3962;42.696;23.354;2023-03-31T14:28:22;9.43;;;2.40;;
7833;SDS011;3962;42.696;23.354;2023-03-31T14:31:02;7.30;;;2.13;;
7833;SDS011;3962;42.696;23.354;2023-03-31T14:33:41;5.95;;;2.80;;
7833;SDS011;3962;42.696;23.354;2023-03-31T14:36:16;7.47;;;3.70;;
7833;SDS011;3962;42.696;23.354;2023-03-31T14:38:52;4.47;;;2.37;;
7833;SDS011;3962;42.696;23.354;2023-03-31T14:41:20;7.10;;;3.30;;
7833;SDS011;3962;42.696;23.354;2023-03-31T14:43:55;7.73;;;3.03;;
7833;SDS011;3962;42.696;23.354;2023-03-31T14:46:25;8.03;;;2.77;;
7833;SDS011;3962;42.696;23.354;2023-03-31T14:48:56;8.20;;;3.10;;
7833;SDS011;3962;42.696;23.354;2023-03-31T14:51:25;6.13;;;2.83;;
7833;SDS011;3962;42.696;23.354;2023-03-31T14:53:55;6.40;;;2.90;;
7833;SDS011;3962;42.696;23.354;2023-03-31T14:56:24;10.83;;;3.50;;
7833;SDS011;3962;42.696;23.354;2023-03-31T14:59:00;4.60;;;2.40;;
7833;SDS011;3962;42.696;23.354;2023-03-31T15:01:28;5.90;;;2.57;;
7833;SDS011;3962;42.696;23.354;2023-03-31T15:04:00;5.00;;;2.37;;
7833;SDS011;3962;42.696;23.354;2023-03-31T15:06:31;6.10;;;2.43;;
7833;SDS011;3962;42.696;23.354;2023-03-31T15:09:00;5.67;;;2.60;;
7833;SDS011;3962;42.696;23.354;2023-03-31T15:11:29;5.63;;;2.30;;
7833;SDS011;3962;42.696;23.354;2023-03-31T15:13:57;9.17;;;2.80;;
7833;SDS011;3962;42.696;23.354;2023-03-31T15:16:28;3.27;;;2.50;;
7833;SDS011;3962;42.696;23.354;2023-03-31T15:18:57;5.70;;;2.47;;
7833;SDS011;3962;42.696;23.354;2023-03-31T15:21:26;4.23;;;1.97;;
7833;SDS011;3962;42.696;23.354;2023-03-31T15:23:56;4.10;;;2.17;;
7833;SDS011;3962;42.696;23.354;2023-03-31T15:26:24;7.60;;;3.37;;
7833;SDS011;3962;42.696;23.354;2023-03-31T15:28:57;5.47;;;2.80;;
7833;SDS011;3962;42.696;23.354;2023-03-31T15:31:28;8.53;;;2.90;;
7833;SDS011;3962;42.696;23.354;2023-03-31T15:33:56;8.40;;;3.20;;
7833;SDS011;3962;42.696;23.354;2023-03-31T15:36:23;12.33;;;4.23;;
7833;SDS011;3962;42.696;23.354;2023-03-31T15:38:53;9.53;;;3.00;;
7833;SDS011;3962;42.696;23.354;2023-03-31T15:41:23;10.93;;;2.90;;
7833;SDS011;3962;42.696;23.354;2023-03-31T15:44:03;6.53;;;3.03;;
7833;SDS011;3962;42.696;23.354;2023-03-31T15:46:47;4.93;;;2.63;;
7833;SDS011;3962;42.696;23.354;2023-03-31T15:49:17;9.83;;;3.13;;
7833;SDS011;3962;42.696;23.354;2023-03-31T15:51:46;4.47;;;2.87;;